sensor_id;sensor_type;location;lat;lon;timestamp;pressure;altitude;pressure_sealevel;temperature;humidity
77353;BME280;66421;40.310;-75.130;2023-01-20T00:02:12;99608.50;;;3.58;70.81
77353;BME280;66421;40.310;-75.130;2023-01-20T00:04:38;99612.03;;;3.59;69.43
77353;BME280;66421;40.310;-75.130;2023-01-20T00:07:03;99607.36;;;4.99;66.01
77353;BME280;66421;40.310;-75.130;2023-01-20T00:09:30;99599.73;;;3.92;67.90
77353;BME280;66421;40.310;-75.130;2023-01-20T00:11:53;99602.12;;;2.43;75.13
77353;BME280;66421;40.310;-75.130;2023-01-20T00:14:19;99598.15;;;2.09;77.20
77353;BME280;66421;40.310;-75.130;2023-01-20T00:16:44;99591.78;;;1.80;78.63
77353;BME280;66421;40.310;-75.130;2023-01-20T00:19:11;99575.63;;;1.71;79.52
77353;BME280;66421;40.310;-75.130;2023-01-20T00:21:35;99560.39;;;1.94;77.99
77353;BME280;66421;40.310;-75.130;2023-01-20T00:24:01;99556.42;;;2.09;78.48
77353;BME280;66421;40.310;-75.130;2023-01-20T00:26:26;99541.68;;;2.81;74.81
77353;BME280;66421;40.310;-75.130;2023-01-20T00:28:53;99534.92;;;2.22;76.82
77353;BME280;66421;40.310;-75.130;2023-01-20T00:31:18;99519.06;;;3.27;71.93
77353;BME280;66421;40.310;-75.130;2023-01-20T00:33:44;99516.60;;;2.14;75.79
77353;BME280;66421;40.310;-75.130;2023-01-20T00:36:08;99516.32;;;2.27;81.99
77353;BME280;66421;40.310;-75.130;2023-01-20T00:38:32;99505.89;;;1.87;83.73
77353;BME280;66421;40.310;-75.130;2023-01-20T00:40:58;99499.15;;;2.08;80.94
77353;BME280;66421;40.310;-75.130;2023-01-20T00:43:23;99496.20;;;3.56;78.94
77353;BME280;66421;40.310;-75.130;2023-01-20T00:45:49;99484.20;;;3.63;76.59
77353;BME280;66421;40.310;-75.130;2023-01-20T00:48:14;99478.81;;;1.36;82.55
77353;BME280;66421;40.310;-75.130;2023-01-20T00:50:40;99465.76;;;1.55;81.64
77353;BME280;66421;40.310;-75.130;2023-01-20T00:53:05;99451.05;;;0.54;86.57
77353;BME280;66421;40.310;-75.130;2023-01-20T00:55:31;99438.71;;;0.76;85.63
77353;BME280;66421;40.310;-75.130;2023-01-20T00:57:55;99436.99;;;0.87;85.81
77353;BME280;66421;40.310;-75.130;2023-01-20T01:00:21;99436.58;;;2.02;79.41
77353;BME280;66421;40.310;-75.130;2023-01-20T01:02:47;99421.52;;;3.06;72.66
77353;BME280;66421;40.310;-75.130;2023-01-20T01:05:12;99423.14;;;3.15;73.33
77353;BME280;66421;40.310;-75.130;2023-01-20T01:07:37;99435.06;;;3.10;71.32
77353;BME280;66421;40.310;-75.130;2023-01-20T01:10:03;99444.61;;;3.60;70.50
77353;BME280;66421;40.310;-75.130;2023-01-20T01:12:28;99459.66;;;4.06;68.05
77353;BME280;66421;40.310;-75.130;2023-01-20T01:14:54;99457.08;;;3.50;69.07
77353;BME280;66421;40.310;-75.130;2023-01-20T01:17:19;99459.67;;;3.63;70.46
77353;BME280;66421;40.310;-75.130;2023-01-20T01:19:45;99447.73;;;4.16;68.86
77353;BME280;66421;40.310;-75.130;2023-01-20T01:22:10;99430.75;;;4.06;67.41
77353;BME280;66421;40.310;-75.130;2023-01-20T01:24:35;99456.82;;;4.47;65.89
77353;BME280;66421;40.310;-75.130;2023-01-20T01:27:00;99460.24;;;4.42;64.98
77353;BME280;66421;40.310;-75.130;2023-01-20T01:29:26;99468.12;;;3.16;70.04
77353;BME280;66421;40.310;-75.130;2023-01-20T01:31:51;99484.43;;;3.24;70.16
77353;BME280;66421;40.310;-75.130;2023-01-20T01:34:17;99464.42;;;4.18;68.14
77353;BME280;66421;40.310;-75.130;2023-01-20T01:36:41;99483.25;;;3.36;70.08
77353;BME280;66421;40.310;-75.130;2023-01-20T01:39:07;99430.85;;;1.78;76.82
77353;BME280;66421;40.310;-75.130;2023-01-20T01:41:33;99399.80;;;1.32;79.00
77353;BME280;66421;40.310;-75.130;2023-01-20T01:44:04;99451.38;;;2.09;75.59
77353;BME280;66421;40.310;-75.130;2023-01-20T01:46:23;99487.86;;;3.36;71.23
77353;BME280;66421;40.310;-75.130;2023-01-20T01:48:49;99479.23;;;1.69;76.49
77353;BME280;66421;40.310;-75.130;2023-01-20T01:51:19;99419.99;;;1.11;81.07
77353;BME280;66421;40.310;-75.130;2023-01-20T01:53:42;99434.42;;;1.53;79.87
77353;BME280;66421;40.310;-75.130;2023-01-20T01:56:05;99438.98;;;2.12;75.61
77353;BME280;66421;40.310;-75.130;2023-01-20T01:58:34;99451.15;;;1.29;79.58
77353;BME280;66421;40.310;-75.130;2023-01-20T02:00:55;99454.61;;;2.38;77.94
77353;BME280;66421;40.310;-75.130;2023-01-20T02:03:22;99451.19;;;2.45;75.38
77353;BME280;66421;40.310;-75.130;2023-01-20T02:05:48;99456.23;;;3.46;71.00
77353;BME280;66421;40.310;-75.130;2023-01-20T02:08:11;99440.75;;;3.07;72.71
77353;BME280;66421;40.310;-75.130;2023-01-20T02:10:37;99435.08;;;2.80;74.13
77353;BME280;66421;40.310;-75.130;2023-01-20T02:13:03;99419.23;;;2.78;73.46
77353;BME280;66421;40.310;-75.130;2023-01-20T02:15:30;99399.57;;;2.70;73.46
77353;BME280;66421;40.310;-75.130;2023-01-20T02:18:03;99395.84;;;1.32;78.33
77353;BME280;66421;40.310;-75.130;2023-01-20T02:20:38;99403.71;;;3.01;72.01
77353;BME280;66421;40.310;-75.130;2023-01-20T02:22:48;99384.27;;;2.39;72.41
77353;BME280;66421;40.310;-75.130;2023-01-20T02:25:34;99353.05;;;1.17;80.19
77353;BME280;66421;40.310;-75.130;2023-01-20T02:27:49;99361.06;;;0.88;82.99
77353;BME280;66421;40.310;-75.130;2023-01-20T02:32:33;99371.48;;;2.20;77.28
77353;BME280;66421;40.310;-75.130;2023-01-20T02:34:55;99401.78;;;2.94;72.94
77353;BME280;66421;40.310;-75.130;2023-01-20T02:37:18;99395.50;;;5.09;67.03
77353;BME280;66421;40.310;-75.130;2023-01-20T02:39:46;99370.47;;;4.84;64.07
77353;BME280;66421;40.310;-75.130;2023-01-20T02:42:09;99373.42;;;4.13;66.77
77353;BME280;66421;40.310;-75.130;2023-01-20T02:44:37;99375.22;;;5.70;61.17
77353;BME280;66421;40.310;-75.130;2023-01-20T02:47:01;99382.17;;;4.83;62.55
77353;BME280;66421;40.310;-75.130;2023-01-20T02:49:26;99369.73;;;6.61;59.06
77353;BME280;66421;40.310;-75.130;2023-01-20T02:51:52;99374.13;;;6.30;58.57
77353;BME280;66421;40.310;-75.130;2023-01-20T02:54:14;99375.20;;;6.70;56.53
77353;BME280;66421;40.310;-75.130;2023-01-20T02:56:38;99399.14;;;5.30;61.20
77353;BME280;66421;40.310;-75.130;2023-01-20T02:59:07;99406.39;;;4.47;63.23
77353;BME280;66421;40.310;-75.130;2023-01-20T03:01:32;99388.51;;;5.99;60.20
77353;BME280;66421;40.310;-75.130;2023-01-20T03:03:58;99384.66;;;7.13;55.69
77353;BME280;66421;40.310;-75.130;2023-01-20T03:06:24;99389.19;;;5.90;57.47
77353;BME280;66421;40.310;-75.130;2023-01-20T03:08:47;99392.82;;;6.12;56.98
77353;BME280;66421;40.310;-75.130;2023-01-20T03:11:11;99410.17;;;4.54;62.69
77353;BME280;66421;40.310;-75.130;2023-01-20T03:13:40;99418.39;;;5.49;61.25
77353;BME280;66421;40.310;-75.130;2023-01-20T03:16:05;99419.90;;;5.80;59.41
77353;BME280;66421;40.310;-75.130;2023-01-20T03:18:28;99424.39;;;5.34;60.28
77353;BME280;66421;40.310;-75.130;2023-01-20T03:20:53;99425.60;;;5.04;61.49
77353;BME280;66421;40.310;-75.130;2023-01-20T03:23:18;99425.35;;;5.63;59.69
77353;BME280;66421;40.310;-75.130;2023-01-20T03:25:43;99416.95;;;6.37;58.61
77353;BME280;66421;40.310;-75.130;2023-01-20T03:28:09;99419.96;;;5.07;61.36
77353;BME280;66421;40.310;-75.130;2023-01-20T03:30:34;99417.55;;;4.91;62.65
77353;BME280;66421;40.310;-75.130;2023-01-20T03:33:00;99396.34;;;4.13;63.97
77353;BME280;66421;40.310;-75.130;2023-01-20T03:35:24;99389.11;;;4.40;64.22
77353;BME280;66421;40.310;-75.130;2023-01-20T03:37:50;99376.29;;;5.13;62.31
77353;BME280;66421;40.310;-75.130;2023-01-20T03:40:16;99368.84;;;4.89;62.67
77353;BME280;66421;40.310;-75.130;2023-01-20T03:42:47;99365.14;;;4.46;64.05
77353;BME280;66421;40.310;-75.130;2023-01-20T03:45:09;99358.37;;;4.41;64.18
77353;BME280;66421;40.310;-75.130;2023-01-20T03:47:43;99334.28;;;5.40;60.79
77353;BME280;66421;40.310;-75.130;2023-01-20T03:50:04;99339.23;;;5.68;59.89
77353;BME280;66421;40.310;-75.130;2023-01-20T03:52:26;99351.16;;;4.25;63.62
77353;BME280;66421;40.310;-75.130;2023-01-20T03:54:50;99345.51;;;4.31;65.35
77353;BME280;66421;40.310;-75.130;2023-01-20T03:57:17;99347.05;;;4.23;63.69
77353;BME280;66421;40.310;-75.130;2023-01-20T03:59:41;99357.75;;;4.29;63.94
77353;BME280;66421;40.310;-75.130;2023-01-20T04:02:06;99358.62;;;4.40;64.06
77353;BME280;66421;40.310;-75.130;2023-01-20T04:04:31;99347.31;;;5.64;60.41
77353;BME280;66421;40.310;-75.130;2023-01-20T04:06:55;99340.83;;;4.84;64.19
77353;BME280;66421;40.310;-75.130;2023-01-20T04:09:23;99332.84;;;4.18;64.07
77353;BME280;66421;40.310;-75.130;2023-01-20T04:11:46;99322.54;;;4.25;65.01
77353;BME280;66421;40.310;-75.130;2023-01-20T04:14:12;99312.14;;;5.83;59.40
77353;BME280;66421;40.310;-75.130;2023-01-20T04:16:37;99304.90;;;5.98;58.27
77353;BME280;66421;40.310;-75.130;2023-01-20T04:19:02;99303.08;;;5.85;58.30
77353;BME280;66421;40.310;-75.130;2023-01-20T04:21:33;99286.37;;;6.41;56.68
77353;BME280;66421;40.310;-75.130;2023-01-20T04:23:55;99294.26;;;6.78;56.04
77353;BME280;66421;40.310;-75.130;2023-01-20T04:26:18;99295.35;;;6.18;56.53
77353;BME280;66421;40.310;-75.130;2023-01-20T04:28:44;99291.70;;;6.06;58.27
77353;BME280;66421;40.310;-75.130;2023-01-20T04:31:09;99288.76;;;6.64;56.33
77353;BME280;66421;40.310;-75.130;2023-01-20T04:33:36;99288.78;;;6.14;57.31
77353;BME280;66421;40.310;-75.130;2023-01-20T04:36:00;99294.87;;;4.33;64.01
77353;BME280;66421;40.310;-75.130;2023-01-20T04:38:26;99274.54;;;5.27;61.59
77353;BME280;66421;40.310;-75.130;2023-01-20T04:40:51;99261.80;;;6.72;56.99
77353;BME280;66421;40.310;-75.130;2023-01-20T04:43:16;99265.97;;;6.12;57.36
77353;BME280;66421;40.310;-75.130;2023-01-20T04:45:41;99272.91;;;5.68;58.78
77353;BME280;66421;40.310;-75.130;2023-01-20T04:48:08;99269.38;;;6.64;56.65
77353;BME280;66421;40.310;-75.130;2023-01-20T04:50:36;99273.29;;;6.67;55.89
77353;BME280;66421;40.310;-75.130;2023-01-20T04:52:58;99274.57;;;6.77;54.91
77353;BME280;66421;40.310;-75.130;2023-01-20T04:55:23;99279.34;;;7.36;53.20
77353;BME280;66421;40.310;-75.130;2023-01-20T04:57:49;99291.59;;;6.28;55.84
77353;BME280;66421;40.310;-75.130;2023-01-20T05:00:15;99301.36;;;6.38;56.40
77353;BME280;66421;40.310;-75.130;2023-01-20T05:02:39;99298.85;;;6.79;56.00
77353;BME280;66421;40.310;-75.130;2023-01-20T05:05:06;99305.11;;;7.42;54.01
77353;BME280;66421;40.310;-75.130;2023-01-20T05:07:32;99313.49;;;5.54;58.23
77353;BME280;66421;40.310;-75.130;2023-01-20T05:09:57;99318.47;;;5.01;60.30
77353;BME280;66421;40.310;-75.130;2023-01-20T05:12:22;99328.89;;;5.65;59.57
77353;BME280;66421;40.310;-75.130;2023-01-20T05:14:47;99347.50;;;5.03;59.76
77353;BME280;66421;40.310;-75.130;2023-01-20T05:17:13;99359.20;;;5.40;59.89
77353;BME280;66421;40.310;-75.130;2023-01-20T05:19:38;99370.43;;;5.28;59.51
77353;BME280;66421;40.310;-75.130;2023-01-20T05:22:03;99457.96;;;4.33;63.59
77353;BME280;66421;40.310;-75.130;2023-01-20T05:24:29;99548.93;;;2.75;69.74
77353;BME280;66421;40.310;-75.130;2023-01-20T05:26:57;99575.25;;;3.09;70.78
77353;BME280;66421;40.310;-75.130;2023-01-20T05:29:20;99557.32;;;2.40;72.47
77353;BME280;66421;40.310;-75.130;2023-01-20T05:31:45;99504.58;;;2.28;71.74
77353;BME280;66421;40.310;-75.130;2023-01-20T05:34:11;99494.94;;;2.67;70.62
77353;BME280;66421;40.310;-75.130;2023-01-20T05:36:37;99480.28;;;3.22;68.12
77353;BME280;66421;40.310;-75.130;2023-01-20T05:39:02;99456.74;;;3.62;66.98
77353;BME280;66421;40.310;-75.130;2023-01-20T05:41:27;99434.05;;;5.06;62.45
77353;BME280;66421;40.310;-75.130;2023-01-20T05:43:53;99428.64;;;5.32;61.48
77353;BME280;66421;40.310;-75.130;2023-01-20T05:46:19;99422.11;;;5.18;61.17
77353;BME280;66421;40.310;-75.130;2023-01-20T05:48:44;99414.73;;;4.44;62.33
77353;BME280;66421;40.310;-75.130;2023-01-20T05:51:09;99415.75;;;5.25;61.05
77353;BME280;66421;40.310;-75.130;2023-01-20T05:53:35;99400.15;;;5.77;58.58
77353;BME280;66421;40.310;-75.130;2023-01-20T05:56:03;99398.70;;;6.32;57.11
77353;BME280;66421;40.310;-75.130;2023-01-20T05:58:26;99400.16;;;6.07;56.17
77353;BME280;66421;40.310;-75.130;2023-01-20T06:00:51;99387.26;;;6.25;57.50
77353;BME280;66421;40.310;-75.130;2023-01-20T06:03:17;99391.79;;;6.00;57.55
77353;BME280;66421;40.310;-75.130;2023-01-20T06:05:43;99401.19;;;6.78;55.95
77353;BME280;66421;40.310;-75.130;2023-01-20T06:08:07;99402.25;;;7.26;54.51
77353;BME280;66421;40.310;-75.130;2023-01-20T06:10:33;99402.39;;;7.49;52.98
77353;BME280;66421;40.310;-75.130;2023-01-20T06:12:58;99396.62;;;5.96;56.39
77353;BME280;66421;40.310;-75.130;2023-01-20T06:15:24;99401.18;;;6.89;54.10
77353;BME280;66421;40.310;-75.130;2023-01-20T06:17:50;99396.47;;;6.55;54.38
77353;BME280;66421;40.310;-75.130;2023-01-20T06:20:14;99392.49;;;7.51;52.28
77353;BME280;66421;40.310;-75.130;2023-01-20T06:22:40;99394.87;;;6.62;52.78
77353;BME280;66421;40.310;-75.130;2023-01-20T06:25:06;99390.04;;;8.07;50.52
77353;BME280;66421;40.310;-75.130;2023-01-20T06:27:31;99391.62;;;7.57;51.65
77353;BME280;66421;40.310;-75.130;2023-01-20T06:29:56;99392.56;;;7.33;51.81
77353;BME280;66421;40.310;-75.130;2023-01-20T06:32:21;99401.53;;;6.60;54.18
77353;BME280;66421;40.310;-75.130;2023-01-20T06:34:47;99413.46;;;5.31;56.79
77353;BME280;66421;40.310;-75.130;2023-01-20T06:37:12;99399.63;;;7.02;53.85
77353;BME280;66421;40.310;-75.130;2023-01-20T06:39:37;99405.63;;;5.31;57.21
77353;BME280;66421;40.310;-75.130;2023-01-20T06:42:03;99404.02;;;4.25;60.29
77353;BME280;66421;40.310;-75.130;2023-01-20T06:44:29;99396.55;;;5.39;58.28
77353;BME280;66421;40.310;-75.130;2023-01-20T06:46:54;99394.80;;;4.51;62.50
77353;BME280;66421;40.310;-75.130;2023-01-20T06:49:19;99400.16;;;5.46;58.83
77353;BME280;66421;40.310;-75.130;2023-01-20T06:51:45;99396.99;;;5.93;56.86
77353;BME280;66421;40.310;-75.130;2023-01-20T06:54:11;99395.02;;;5.39;57.44
77353;BME280;66421;40.310;-75.130;2023-01-20T06:56:36;99402.16;;;3.78;64.03
77353;BME280;66421;40.310;-75.130;2023-01-20T06:59:01;99408.04;;;4.77;60.41
77353;BME280;66421;40.310;-75.130;2023-01-20T07:01:27;99405.04;;;5.37;58.71
77353;BME280;66421;40.310;-75.130;2023-01-20T07:03:54;99407.11;;;5.03;59.72
77353;BME280;66421;40.310;-75.130;2023-01-20T07:06:26;99415.98;;;4.97;58.91
77353;BME280;66421;40.310;-75.130;2023-01-20T07:08:44;99416.47;;;6.47;56.50
77353;BME280;66421;40.310;-75.130;2023-01-20T07:11:10;99425.01;;;5.63;58.09
77353;BME280;66421;40.310;-75.130;2023-01-20T07:13:36;99417.61;;;5.75;57.59
77353;BME280;66421;40.310;-75.130;2023-01-20T07:16:01;99423.47;;;4.48;60.74
77353;BME280;66421;40.310;-75.130;2023-01-20T07:18:26;99422.52;;;5.20;59.20
77353;BME280;66421;40.310;-75.130;2023-01-20T07:20:53;99425.69;;;4.48;60.11
77353;BME280;66421;40.310;-75.130;2023-01-20T07:23:17;99423.69;;;4.66;61.08
77353;BME280;66421;40.310;-75.130;2023-01-20T07:25:42;99419.92;;;5.45;58.48
77353;BME280;66421;40.310;-75.130;2023-01-20T07:28:07;99428.02;;;5.34;58.95
77353;BME280;66421;40.310;-75.130;2023-01-20T07:30:33;99428.12;;;5.40;57.66
77353;BME280;66421;40.310;-75.130;2023-01-20T07:32:59;99432.17;;;5.38;57.68
77353;BME280;66421;40.310;-75.130;2023-01-20T07:35:24;99430.39;;;6.57;55.23
77353;BME280;66421;40.310;-75.130;2023-01-20T07:37:49;99431.46;;;6.92;54.33
77353;BME280;66421;40.310;-75.130;2023-01-20T07:40:15;99439.84;;;6.93;53.47
77353;BME280;66421;40.310;-75.130;2023-01-20T07:42:40;99439.39;;;7.15;52.51
77353;BME280;66421;40.310;-75.130;2023-01-20T07:45:07;99445.51;;;6.36;54.66
77353;BME280;66421;40.310;-75.130;2023-01-20T07:47:30;99448.41;;;5.73;56.71
77353;BME280;66421;40.310;-75.130;2023-01-20T07:49:56;99447.30;;;5.57;57.00
77353;BME280;66421;40.310;-75.130;2023-01-20T07:52:22;99453.00;;;5.16;58.76
77353;BME280;66421;40.310;-75.130;2023-01-20T07:54:47;99452.72;;;4.82;60.49
77353;BME280;66421;40.310;-75.130;2023-01-20T07:57:12;99456.97;;;4.36;61.47
77353;BME280;66421;40.310;-75.130;2023-01-20T07:59:38;99461.46;;;4.98;58.37
77353;BME280;66421;40.310;-75.130;2023-01-20T08:02:03;99455.39;;;5.63;57.34
77353;BME280;66421;40.310;-75.130;2023-01-20T08:04:28;99452.66;;;5.07;58.08
77353;BME280;66421;40.310;-75.130;2023-01-20T08:06:53;99440.35;;;6.49;56.08
77353;BME280;66421;40.310;-75.130;2023-01-20T08:09:19;99447.38;;;4.01;60.94
77353;BME280;66421;40.310;-75.130;2023-01-20T08:11:45;99448.57;;;4.34;60.56
77353;BME280;66421;40.310;-75.130;2023-01-20T08:14:10;99450.78;;;5.20;58.66
77353;BME280;66421;40.310;-75.130;2023-01-20T08:16:35;99446.94;;;4.56;59.13
77353;BME280;66421;40.310;-75.130;2023-01-20T08:19:01;99461.50;;;3.79;63.12
77353;BME280;66421;40.310;-75.130;2023-01-20T08:21:28;99465.31;;;3.69;63.79
77353;BME280;66421;40.310;-75.130;2023-01-20T08:23:53;99465.04;;;3.15;64.75
77353;BME280;66421;40.310;-75.130;2023-01-20T08:26:17;99456.31;;;4.68;60.74
77353;BME280;66421;40.310;-75.130;2023-01-20T08:28:42;99468.23;;;4.25;61.78
77353;BME280;66421;40.310;-75.130;2023-01-20T08:31:10;99475.05;;;3.66;64.14
77353;BME280;66421;40.310;-75.130;2023-01-20T08:33:33;99469.44;;;2.94;66.55
77353;BME280;66421;40.310;-75.130;2023-01-20T08:36:04;99478.27;;;2.99;66.76
77353;BME280;66421;40.310;-75.130;2023-01-20T08:38:24;99482.20;;;2.37;68.85
77353;BME280;66421;40.310;-75.130;2023-01-20T08:40:49;99481.64;;;2.50;68.03
77353;BME280;66421;40.310;-75.130;2023-01-20T08:43:14;99481.04;;;3.36;66.06
77353;BME280;66421;40.310;-75.130;2023-01-20T08:45:40;99475.24;;;3.76;64.32
77353;BME280;66421;40.310;-75.130;2023-01-20T08:48:05;99475.60;;;3.55;65.99
77353;BME280;66421;40.310;-75.130;2023-01-20T08:50:31;99477.92;;;3.38;65.11
77353;BME280;66421;40.310;-75.130;2023-01-20T08:52:56;99479.37;;;3.24;65.79
77353;BME280;66421;40.310;-75.130;2023-01-20T08:55:21;99479.28;;;3.43;63.92
77353;BME280;66421;40.310;-75.130;2023-01-20T08:57:47;99479.81;;;4.45;61.84
77353;BME280;66421;40.310;-75.130;2023-01-20T09:00:14;99479.38;;;3.15;63.59
77353;BME280;66421;40.310;-75.130;2023-01-20T09:02:38;99484.72;;;3.46;63.12
77353;BME280;66421;40.310;-75.130;2023-01-20T09:05:04;99485.20;;;3.51;63.35
77353;BME280;66421;40.310;-75.130;2023-01-20T09:07:29;99486.35;;;3.41;65.17
77353;BME280;66421;40.310;-75.130;2023-01-20T09:09:54;99490.10;;;3.05;64.22
77353;BME280;66421;40.310;-75.130;2023-01-20T09:12:20;99488.13;;;3.46;64.16
77353;BME280;66421;40.310;-75.130;2023-01-20T09:14:44;99491.84;;;3.04;64.99
77353;BME280;66421;40.310;-75.130;2023-01-20T09:17:10;99493.22;;;3.03;65.77
77353;BME280;66421;40.310;-75.130;2023-01-20T09:19:36;99502.00;;;1.99;68.08
77353;BME280;66421;40.310;-75.130;2023-01-20T09:22:02;99502.67;;;2.00;67.96
77353;BME280;66421;40.310;-75.130;2023-01-20T09:24:26;99508.34;;;2.03;67.79
77353;BME280;66421;40.310;-75.130;2023-01-20T09:26:52;99516.94;;;1.78;69.77
77353;BME280;66421;40.310;-75.130;2023-01-20T09:29:19;99511.99;;;1.18;71.34
77353;BME280;66421;40.310;-75.130;2023-01-20T09:31:47;99512.62;;;1.82;70.49
77353;BME280;66421;40.310;-75.130;2023-01-20T09:34:08;99512.61;;;2.02;68.26
77353;BME280;66421;40.310;-75.130;2023-01-20T09:36:34;99508.87;;;2.58;66.49
77353;BME280;66421;40.310;-75.130;2023-01-20T09:39:02;99510.86;;;2.35;66.66
77353;BME280;66421;40.310;-75.130;2023-01-20T09:41:28;99516.98;;;1.58;70.36
77353;BME280;66421;40.310;-75.130;2023-01-20T09:43:59;99518.67;;;1.27;71.17
77353;BME280;66421;40.310;-75.130;2023-01-20T09:46:25;99522.19;;;1.60;68.09
77353;BME280;66421;40.310;-75.130;2023-01-20T09:48:49;99516.72;;;2.35;66.25
77353;BME280;66421;40.310;-75.130;2023-01-20T09:51:14;99520.06;;;2.17;65.76
77353;BME280;66421;40.310;-75.130;2023-01-20T09:53:45;99524.36;;;1.93;66.35
77353;BME280;66421;40.310;-75.130;2023-01-20T09:56:06;99525.58;;;2.17;65.84
77353;BME280;66421;40.310;-75.130;2023-01-20T09:58:31;99531.40;;;1.79;66.96
77353;BME280;66421;40.310;-75.130;2023-01-20T10:00:55;99536.80;;;1.82;67.57
77353;BME280;66421;40.310;-75.130;2023-01-20T10:03:19;99530.80;;;2.37;64.19
77353;BME280;66421;40.310;-75.130;2023-01-20T10:05:44;99527.27;;;2.53;64.40
77353;BME280;66421;40.310;-75.130;2023-01-20T10:08:12;99527.58;;;2.48;64.73
77353;BME280;66421;40.310;-75.130;2023-01-20T10:10:36;99524.02;;;2.32;64.15
77353;BME280;66421;40.310;-75.130;2023-01-20T10:13:03;99538.28;;;1.60;67.94
77353;BME280;66421;40.310;-75.130;2023-01-20T10:15:26;99536.66;;;2.34;64.03
77353;BME280;66421;40.310;-75.130;2023-01-20T10:17:52;99528.58;;;2.29;64.98
77353;BME280;66421;40.310;-75.130;2023-01-20T10:20:19;99532.32;;;2.67;63.72
77353;BME280;66421;40.310;-75.130;2023-01-20T10:22:43;99543.35;;;3.04;62.41
77353;BME280;66421;40.310;-75.130;2023-01-20T10:25:08;99547.57;;;2.69;62.58
77353;BME280;66421;40.310;-75.130;2023-01-20T10:27:31;99548.29;;;2.87;62.99
77353;BME280;66421;40.310;-75.130;2023-01-20T10:30:04;99561.66;;;2.34;64.26
77353;BME280;66421;40.310;-75.130;2023-01-20T10:32:28;99563.29;;;2.40;65.66
77353;BME280;66421;40.310;-75.130;2023-01-20T10:34:49;99557.66;;;2.38;65.10
77353;BME280;66421;40.310;-75.130;2023-01-20T10:37:13;99556.95;;;2.88;64.22
77353;BME280;66421;40.310;-75.130;2023-01-20T10:39:45;99566.11;;;2.22;66.09
77353;BME280;66421;40.310;-75.130;2023-01-20T10:42:09;99567.98;;;1.81;67.54
77353;BME280;66421;40.310;-75.130;2023-01-20T10:44:33;99560.67;;;3.35;63.02
77353;BME280;66421;40.310;-75.130;2023-01-20T10:47:06;99556.28;;;4.13;59.90
77353;BME280;66421;40.310;-75.130;2023-01-20T10:49:33;99555.45;;;3.96;59.58
77353;BME280;66421;40.310;-75.130;2023-01-20T10:51:51;99553.97;;;3.81;59.75
77353;BME280;66421;40.310;-75.130;2023-01-20T10:54:20;99562.22;;;3.35;61.12
77353;BME280;66421;40.310;-75.130;2023-01-20T10:56:40;99555.77;;;3.68;59.73
77353;BME280;66421;40.310;-75.130;2023-01-20T10:59:06;99548.88;;;4.10;59.16
77353;BME280;66421;40.310;-75.130;2023-01-20T11:01:27;99551.99;;;3.43;61.33
77353;BME280;66421;40.310;-75.130;2023-01-20T11:03:52;99553.24;;;3.45;60.36
77353;BME280;66421;40.310;-75.130;2023-01-20T11:06:20;99561.68;;;3.82;59.95
77353;BME280;66421;40.310;-75.130;2023-01-20T11:08:42;99559.82;;;4.14;59.16
77353;BME280;66421;40.310;-75.130;2023-01-20T11:11:10;99561.80;;;4.53;58.14
77353;BME280;66421;40.310;-75.130;2023-01-20T11:13:33;99567.08;;;4.53;57.39
77353;BME280;66421;40.310;-75.130;2023-01-20T11:16:02;99566.21;;;3.87;59.25
77353;BME280;66421;40.310;-75.130;2023-01-20T11:18:28;99565.25;;;4.67;57.36
77353;BME280;66421;40.310;-75.130;2023-01-20T11:20:51;99571.47;;;4.17;58.75
77353;BME280;66421;40.310;-75.130;2023-01-20T11:23:20;99572.05;;;4.74;56.87
77353;BME280;66421;40.310;-75.130;2023-01-20T11:25:41;99574.79;;;6.27;53.16
77353;BME280;66421;40.310;-75.130;2023-01-20T11:28:14;99576.80;;;6.74;51.70
77353;BME280;66421;40.310;-75.130;2023-01-20T11:30:33;99578.38;;;6.35;51.82
77353;BME280;66421;40.310;-75.130;2023-01-20T11:33:06;99582.63;;;6.71;51.21
77353;BME280;66421;40.310;-75.130;2023-01-20T11:35:24;99582.07;;;5.48;53.53
77353;BME280;66421;40.310;-75.130;2023-01-20T11:37:48;99578.84;;;5.39;54.15
77353;BME280;66421;40.310;-75.130;2023-01-20T11:40:19;99578.37;;;5.93;53.53
77353;BME280;66421;40.310;-75.130;2023-01-20T11:42:43;99578.77;;;5.80;54.26
77353;BME280;66421;40.310;-75.130;2023-01-20T11:45:24;99580.42;;;6.44;51.77
77353;BME280;66421;40.310;-75.130;2023-01-20T11:47:32;99584.02;;;5.08;53.76
77353;BME280;66421;40.310;-75.130;2023-01-20T11:52:22;99596.71;;;5.09;55.57
77353;BME280;66421;40.310;-75.130;2023-01-20T11:54:48;99596.59;;;5.66;54.43
77353;BME280;66421;40.310;-75.130;2023-01-20T11:57:16;99600.05;;;5.70;53.39
77353;BME280;66421;40.310;-75.130;2023-01-20T11:59:47;99594.02;;;5.32;54.78
77353;BME280;66421;40.310;-75.130;2023-01-20T12:02:20;99593.08;;;5.42;53.89
77353;BME280;66421;40.310;-75.130;2023-01-20T12:04:43;99596.81;;;4.31;56.98
77353;BME280;66421;40.310;-75.130;2023-01-20T12:07:01;99593.25;;;4.95;55.52
77353;BME280;66421;40.310;-75.130;2023-01-20T12:09:26;99601.90;;;3.50;59.05
77353;BME280;66421;40.310;-75.130;2023-01-20T12:11:54;99599.33;;;3.51;60.85
77353;BME280;66421;40.310;-75.130;2023-01-20T12:14:19;99593.21;;;3.35;61.03
77353;BME280;66421;40.310;-75.130;2023-01-20T12:16:40;99590.08;;;4.46;57.62
77353;BME280;66421;40.310;-75.130;2023-01-20T12:19:13;99593.13;;;3.12;60.72
77353;BME280;66421;40.310;-75.130;2023-01-20T12:21:35;99588.22;;;4.69;57.10
77353;BME280;66421;40.310;-75.130;2023-01-20T12:23:59;99595.28;;;3.81;59.46
77353;BME280;66421;40.310;-75.130;2023-01-20T12:26:23;99596.68;;;3.85;58.76
77353;BME280;66421;40.310;-75.130;2023-01-20T12:28:55;99602.56;;;3.95;59.11
77353;BME280;66421;40.310;-75.130;2023-01-20T12:31:16;99606.77;;;2.95;61.35
77353;BME280;66421;40.310;-75.130;2023-01-20T12:33:43;99607.60;;;2.45;64.60
77353;BME280;66421;40.310;-75.130;2023-01-20T12:36:20;99605.99;;;2.62;63.11
77353;BME280;66421;40.310;-75.130;2023-01-20T12:38:38;99608.31;;;3.62;61.14
77353;BME280;66421;40.310;-75.130;2023-01-20T12:41:00;99609.64;;;2.75;63.93
77353;BME280;66421;40.310;-75.130;2023-01-20T12:43:32;99606.91;;;2.56;64.16
77353;BME280;66421;40.310;-75.130;2023-01-20T12:45:57;99605.01;;;2.75;63.32